createdAt,value
2022-09-26T00:00:46.202Z,100.00
2022-09-26T00:03:15.154Z,100.00
2022-09-26T00:05:42.741Z,100.00
2022-09-26T00:08:10.318Z,100.00
2022-09-26T00:10:37.932Z,100.00
2022-09-26T00:13:05.598Z,100.00
2022-09-26T00:15:33.209Z,100.00
2022-09-26T00:18:00.788Z,100.00
2022-09-26T00:20:29.797Z,100.00
2022-09-26T00:22:57.440Z,100.00
2022-09-26T00:25:26.920Z,100.00
2022-09-26T00:27:54.563Z,100.00
2022-09-26T00:30:22.216Z,100.00
2022-09-26T00:32:49.810Z,100.00
2022-09-26T00:35:17.507Z,100.00
2022-09-26T00:37:46.398Z,100.00
2022-09-26T00:40:14.079Z,100.00
2022-09-26T00:42:41.742Z,100.00
2022-09-26T00:45:10.433Z,100.00
2022-09-26T00:47:43.289Z,100.00
2022-09-26T00:50:17.915Z,100.00
2022-09-26T00:52:51.924Z,100.00
2022-09-26T00:55:24.278Z,100.00
2022-09-26T00:57:57.341Z,100.00
2022-09-26T01:00:25.015Z,100.00
2022-09-26T01:02:54.076Z,100.00
2022-09-26T01:05:23.873Z,100.00
2022-09-26T01:07:53.995Z,100.00
2022-09-26T01:10:23.140Z,100.00
2022-09-26T01:12:51.166Z,100.00
2022-09-26T01:15:19.680Z,100.00
2022-09-26T01:17:47.691Z,100.00
2022-09-26T01:20:27.800Z,100.00
2022-09-26T01:23:45.434Z,100.00
2022-09-26T01:26:57.471Z,100.00
2022-09-26T01:29:52.709Z,100.00
2022-09-26T01:32:47.827Z,100.00
2022-09-26T01:35:27.921Z,100.00
2022-09-26T01:38:05.749Z,100.00
2022-09-26T01:40:41.432Z,100.00
2022-09-26T01:43:16.785Z,100.00
2022-09-26T01:45:52.692Z,100.00
2022-09-26T01:48:26.191Z,100.00
2022-09-26T01:50:58.680Z,100.00
2022-09-26T01:53:30.751Z,100.00
2022-09-26T01:56:03.900Z,100.00
2022-09-26T01:58:36.944Z,100.00
2022-09-26T02:01:11.386Z,100.00
2022-09-26T02:03:44.159Z,100.00
2022-09-26T02:06:17.605Z,100.00
2022-09-26T02:08:50.464Z,100.00
2022-09-26T02:11:19.359Z,100.00
2022-09-26T02:13:52.142Z,100.00
2022-09-26T02:16:26.756Z,100.00
2022-09-26T02:18:58.050Z,100.00
2022-09-26T02:21:25.880Z,100.00
2022-09-26T02:23:54.893Z,100.00
2022-09-26T02:26:23.531Z,100.00
2022-09-26T02:28:51.396Z,100.00
2022-09-26T02:31:22.857Z,100.00
2022-09-26T02:33:53.019Z,100.00
2022-09-26T02:36:21.636Z,100.00
2022-09-26T02:38:49.290Z,100.00
2022-09-26T02:41:29.053Z,100.00
2022-09-26T02:44:24.075Z,100.00
2022-09-26T02:47:09.533Z,100.00
2022-09-26T02:49:51.120Z,100.00
2022-09-26T02:52:35.062Z,100.00
2022-09-26T02:55:13.227Z,100.00
2022-09-26T02:57:49.851Z,100.00
2022-09-26T03:00:21.496Z,100.00
2022-09-26T03:02:53.388Z,100.00
2022-09-26T03:05:25.064Z,100.00
2022-09-26T03:07:57.747Z,100.00
2022-09-26T03:10:28.314Z,100.00
2022-09-26T03:13:01.362Z,100.00
2022-09-26T03:15:30.591Z,100.00
2022-09-26T03:18:00.118Z,100.00
2022-09-26T03:20:29.104Z,100.00
2022-09-26T03:22:57.134Z,100.00
2022-09-26T03:25:28.046Z,100.00
2022-09-26T03:27:55.910Z,100.00
2022-09-26T03:30:24.281Z,100.00
2022-09-26T03:32:51.927Z,100.00
2022-09-26T03:35:20.751Z,100.00
2022-09-26T03:37:50.166Z,100.00
2022-09-26T03:40:17.952Z,100.00
2022-09-26T03:42:46.735Z,100.00
2022-09-26T03:45:14.274Z,100.00
2022-09-26T03:47:42.182Z,100.00
2022-09-26T03:50:10.516Z,100.00
2022-09-26T03:52:38.240Z,100.00
2022-09-26T03:55:07.955Z,100.00
2022-09-26T03:57:35.865Z,100.00
2022-09-26T04:00:07.504Z,100.00
2022-09-26T04:02:35.605Z,100.00
2022-09-26T04:05:03.215Z,100.00
2022-09-26T04:07:30.812Z,100.00
2022-09-26T04:09:58.350Z,100.00
2022-09-26T04:12:27.777Z,100.00
2022-09-26T04:14:55.356Z,100.00
2022-09-26T04:17:23.215Z,100.00
2022-09-26T04:19:50.786Z,100.00
2022-09-26T04:22:18.442Z,100.00
2022-09-26T04:24:45.954Z,100.00
2022-09-26T04:27:13.539Z,100.00
2022-09-26T04:29:43.978Z,100.00
2022-09-26T04:32:12.266Z,100.00
2022-09-26T04:34:40.595Z,100.00
2022-09-26T04:37:08.975Z,100.00
2022-09-26T04:39:37.001Z,100.00
2022-09-26T04:42:04.796Z,100.00
2022-09-26T04:44:32.655Z,100.00
2022-09-26T04:47:01.563Z,100.00
2022-09-26T04:49:29.731Z,100.00
2022-09-26T04:51:57.414Z,100.00
2022-09-26T04:54:26.243Z,100.00
2022-09-26T04:56:53.943Z,100.00
2022-09-26T04:59:21.552Z,100.00
2022-09-26T05:01:49.172Z,100.00
2022-09-26T05:04:18.089Z,100.00
2022-09-26T05:06:45.733Z,100.00
2022-09-26T05:09:13.341Z,100.00
2022-09-26T05:11:40.903Z,100.00
2022-09-26T05:14:08.806Z,100.00
2022-09-26T05:16:39.814Z,100.00
2022-09-26T05:19:08.688Z,100.00
2022-09-26T05:21:37.615Z,100.00
2022-09-26T05:24:23.031Z,100.00
2022-09-26T05:26:52.599Z,100.00
2022-09-26T05:29:21.751Z,100.00
2022-09-26T05:31:50.231Z,100.00
2022-09-26T05:34:20.183Z,100.00
2022-09-26T05:36:51.742Z,100.00
2022-09-26T05:39:42.143Z,100.00
2022-09-26T05:42:10.515Z,100.00
2022-09-26T05:44:39.696Z,100.00
2022-09-26T05:47:08.447Z,100.00
2022-09-26T05:49:36.514Z,100.00
2022-09-26T05:52:05.404Z,100.00
2022-09-26T05:54:33.013Z,100.00
2022-09-26T05:57:00.778Z,100.00
2022-09-26T05:59:28.581Z,100.00
2022-09-26T06:01:58.176Z,100.00
2022-09-26T06:04:25.933Z,100.00
2022-09-26T06:06:53.604Z,100.00
2022-09-26T06:09:23.052Z,100.00
2022-09-26T06:11:50.610Z,100.00
2022-09-26T06:14:18.176Z,100.00
2022-09-26T06:16:45.788Z,100.00
2022-09-26T06:19:13.418Z,100.00
2022-09-26T06:21:43.960Z,100.00
2022-09-26T06:24:12.032Z,100.00
2022-09-26T06:26:41.016Z,100.00
2022-09-26T06:29:11.352Z,100.00
2022-09-26T06:31:39.153Z,100.00
2022-09-26T06:34:07.794Z,100.00
2022-09-26T06:36:35.759Z,100.00
2022-09-26T06:39:03.593Z,100.00
2022-09-26T06:41:31.236Z,100.00
2022-09-26T06:44:02.948Z,100.00
2022-09-26T06:46:31.240Z,100.00
2022-09-26T06:48:58.919Z,100.00
2022-09-26T06:51:26.493Z,100.00
2022-09-26T06:53:56.166Z,100.00
2022-09-26T06:56:23.740Z,100.00
2022-09-26T06:58:51.359Z,100.00
2022-09-26T07:01:20.442Z,100.00
2022-09-26T07:03:48.157Z,100.00
2022-09-26T07:06:16.809Z,100.00
2022-09-26T07:09:01.605Z,100.00
2022-09-26T07:11:41.988Z,100.00
2022-09-26T07:14:18.578Z,100.00
2022-09-26T07:16:49.272Z,100.00
2022-09-26T07:19:17.194Z,100.00
2022-09-26T07:21:45.115Z,100.00
2022-09-26T07:24:14.086Z,100.00
2022-09-26T07:26:41.828Z,100.00
2022-09-26T07:29:09.506Z,100.00
2022-09-26T07:31:37.886Z,100.00
2022-09-26T07:34:08.395Z,100.00
2022-09-26T07:36:36.157Z,100.00
2022-09-26T07:39:03.921Z,100.00
2022-09-26T07:41:31.469Z,100.00
2022-09-26T07:47:04.548Z,100.00
2022-09-26T07:49:50.911Z,100.00
2022-09-26T07:52:22.419Z,100.00
2022-09-26T07:54:50.047Z,100.00
2022-09-26T07:57:19.516Z,100.00
2022-09-26T07:59:49.596Z,100.00
2022-09-26T08:02:22.155Z,100.00
2022-09-26T08:04:58.816Z,100.00
2022-09-26T08:07:28.486Z,100.00
2022-09-26T08:09:56.290Z,100.00
2022-09-26T08:12:25.286Z,100.00
2022-09-26T08:14:53.079Z,100.00
2022-09-26T08:17:21.553Z,100.00
2022-09-26T08:19:50.577Z,100.00
2022-09-26T08:22:20.555Z,100.00
2022-09-26T08:24:49.637Z,100.00
2022-09-26T08:27:17.902Z,100.00
2022-09-26T08:29:48.852Z,100.00
2022-09-26T08:32:17.331Z,100.00
2022-09-26T08:34:45.622Z,100.00
2022-09-26T08:37:14.615Z,100.00
2022-09-26T08:39:42.167Z,100.00
2022-09-26T08:42:23.884Z,100.00
2022-09-26T08:45:26.909Z,100.00
2022-09-26T08:48:03.890Z,100.00
2022-09-26T08:50:40.684Z,100.00
2022-09-26T08:53:13.984Z,100.00
2022-09-26T08:55:43.495Z,100.00
2022-09-26T08:58:18.224Z,100.00
2022-09-26T09:00:48.622Z,100.00
2022-09-26T09:03:25.712Z,100.00
2022-09-26T09:05:59.441Z,100.00
2022-09-26T09:08:35.816Z,100.00
2022-09-26T09:11:11.362Z,100.00
2022-09-26T09:13:49.778Z,100.00
2022-09-26T09:16:31.745Z,100.00
2022-09-26T09:19:12.085Z,100.00
2022-09-26T09:21:47.641Z,99.32
2022-09-26T09:24:29.508Z,97.23
2022-09-26T09:30:17.598Z,96.48
2022-09-26T09:32:51.771Z,96.20
2022-09-26T09:35:26.175Z,94.67
2022-09-26T09:37:54.836Z,95.55
2022-09-26T09:40:30.078Z,94.40
2022-09-26T09:43:03.104Z,95.02
2022-09-26T09:45:38.168Z,95.95
2022-09-26T09:48:10.670Z,96.53
2022-09-26T09:50:46.721Z,97.72
2022-09-26T09:53:29.648Z,98.12
2022-09-26T09:56:10.461Z,97.87
2022-09-26T09:58:56.243Z,97.59
2022-09-26T10:01:28.011Z,97.21
2022-09-26T10:04:03.311Z,96.59
2022-09-26T10:06:45.265Z,95.56
2022-09-26T10:09:35.380Z,95.04
2022-09-26T10:12:14.442Z,95.12
2022-09-26T10:14:46.864Z,92.37
2022-09-26T10:17:18.719Z,91.41
2022-09-26T10:19:46.300Z,88.97
2022-09-26T10:22:25.816Z,88.87
2022-09-26T10:25:00.694Z,87.13
2022-09-26T10:27:36.774Z,88.06
2022-09-26T10:30:09.911Z,88.12
2022-09-26T10:32:46.705Z,88.54
2022-09-26T10:35:20.717Z,88.40
2022-09-26T10:37:51.635Z,89.31
2022-09-26T10:40:44.227Z,89.67
2022-09-26T10:43:29.590Z,91.31
2022-09-26T10:46:10.067Z,91.95
2022-09-26T10:48:48.470Z,93.65
2022-09-26T10:51:21.880Z,95.35
2022-09-26T10:53:53.019Z,96.65
2022-09-26T10:56:26.118Z,96.84
2022-09-26T10:58:59.450Z,97.41
2022-09-26T11:01:31.103Z,97.92
2022-09-26T11:04:10.824Z,97.99
2022-09-26T11:06:43.816Z,98.69
2022-09-26T11:09:13.919Z,98.82
2022-09-26T11:11:42.087Z,100.00
2022-09-26T11:14:11.133Z,99.85
2022-09-26T11:16:51.190Z,99.93
2022-09-26T11:19:32.335Z,100.00
2022-09-26T11:22:08.240Z,100.00
2022-09-26T11:24:46.147Z,99.95
2022-09-26T11:27:23.576Z,100.00
2022-09-26T11:29:59.847Z,100.00
2022-09-26T11:32:30.372Z,100.00
2022-09-26T11:35:02.920Z,100.00
2022-09-26T11:37:50.628Z,98.77
2022-09-26T11:40:27.494Z,99.59
2022-09-26T11:43:09.772Z,100.00
2022-09-26T11:45:56.428Z,100.00
2022-09-26T11:48:49.314Z,100.00
2022-09-26T11:51:23.928Z,100.00
2022-09-26T11:54:19.305Z,100.00
2022-09-26T11:57:01.850Z,100.00
2022-09-26T11:59:43.475Z,100.00
2022-09-26T12:02:33.514Z,100.00
2022-09-26T12:05:27.078Z,100.00
2022-09-26T12:08:11.501Z,100.00
2022-09-26T12:10:47.660Z,100.00
2022-09-26T12:13:34.134Z,100.00
2022-09-26T12:16:12.202Z,100.00
2022-09-26T12:18:53.391Z,100.00
2022-09-26T12:21:28.182Z,100.00
2022-09-26T12:23:59.996Z,100.00
2022-09-26T12:26:34.597Z,100.00
2022-09-26T12:29:16.978Z,100.00
2022-09-26T12:31:59.631Z,100.00
2022-09-26T12:34:42.686Z,100.00
2022-09-26T12:37:25.950Z,100.00
2022-09-26T12:40:10.328Z,100.00
2022-09-26T12:42:55.020Z,100.00
2022-09-26T12:45:43.040Z,100.00
2022-09-26T12:48:24.512Z,100.00
2022-09-26T12:51:08.120Z,100.00
2022-09-26T12:53:53.666Z,100.00
2022-09-26T12:56:26.675Z,100.00
2022-09-26T12:59:10.325Z,100.00
2022-09-26T13:01:54.976Z,100.00
2022-09-26T13:04:52.944Z,100.00
2022-09-26T13:07:38.550Z,100.00
2022-09-26T13:10:33.298Z,100.00
2022-09-26T13:13:22.264Z,100.00
2022-09-26T13:16:01.174Z,100.00
2022-09-26T13:18:35.273Z,100.00
2022-09-26T13:21:09.993Z,100.00
2022-09-26T13:23:43.480Z,100.00
2022-09-26T13:26:15.686Z,100.00
2022-09-26T13:29:13.005Z,100.00
2022-09-26T13:31:41.389Z,100.00
2022-09-26T13:34:17.772Z,100.00
2022-09-26T13:36:46.474Z,100.00
2022-09-26T13:39:26.802Z,100.00
2022-09-26T13:42:02.831Z,100.00
2022-09-26T13:44:48.006Z,100.00
2022-09-26T13:47:26.951Z,100.00
2022-09-26T13:50:03.246Z,100.00
2022-09-26T13:52:46.918Z,100.00
2022-09-26T13:55:19.284Z,100.00
2022-09-26T13:58:03.803Z,100.00
2022-09-26T14:00:56.877Z,100.00
2022-09-26T14:04:11.482Z,100.00
2022-09-26T14:06:39.066Z,100.00
2022-09-26T14:09:24.294Z,100.00
2022-09-26T14:12:33.049Z,100.00
2022-09-26T14:15:22.555Z,100.00
2022-09-26T14:18:22.720Z,100.00
2022-09-26T14:21:04.858Z,100.00
2022-09-26T14:23:38.826Z,100.00
2022-09-26T14:26:20.920Z,100.00
2022-09-26T14:28:54.894Z,100.00
2022-09-26T14:31:43.965Z,100.00
2022-09-26T14:34:20.790Z,100.00
2022-09-26T14:36:49.339Z,100.00
2022-09-26T14:39:28.274Z,100.00
2022-09-26T14:41:58.704Z,100.00
2022-09-26T14:44:36.382Z,100.00
2022-09-26T14:47:09.001Z,100.00
2022-09-26T14:49:36.808Z,100.00
2022-09-26T14:52:10.438Z,100.00
2022-09-26T14:54:41.079Z,100.00
2022-09-26T14:57:21.441Z,100.00
2022-09-26T14:59:50.721Z,100.00
2022-09-26T15:02:26.016Z,100.00
2022-09-26T15:05:06.900Z,100.00
2022-09-26T15:07:37.612Z,100.00
2022-09-26T15:10:18.786Z,100.00
2022-09-26T15:12:51.029Z,100.00
2022-09-26T15:15:33.400Z,100.00
2022-09-26T15:18:08.234Z,100.00
2022-09-26T15:20:40.351Z,100.00
2022-09-26T15:23:19.164Z,100.00
2022-09-26T15:25:47.138Z,100.00
2022-09-26T15:28:14.735Z,100.00
2022-09-26T15:30:44.874Z,100.00
2022-09-26T15:33:17.357Z,100.00
2022-09-26T15:35:54.470Z,100.00
2022-09-26T15:38:24.621Z,100.00
2022-09-26T15:41:02.476Z,100.00
2022-09-26T15:43:36.089Z,100.00
2022-09-26T15:46:21.246Z,100.00
2022-09-26T15:48:48.848Z,100.00
2022-09-26T15:51:21.151Z,100.00
2022-09-26T15:53:53.600Z,100.00
2022-09-26T15:56:25.114Z,100.00
2022-09-26T15:58:58.514Z,100.00
2022-09-26T16:01:30.114Z,100.00
2022-09-26T16:03:59.988Z,100.00
2022-09-26T16:06:30.770Z,100.00
2022-09-26T16:09:04.696Z,100.00
2022-09-26T16:11:34.127Z,100.00
2022-09-26T16:14:01.964Z,100.00
2022-09-26T16:16:33.191Z,100.00
2022-09-26T16:19:05.346Z,100.00
2022-09-26T16:21:36.456Z,100.00
2022-09-26T16:24:28.421Z,100.00
2022-09-26T16:26:56.605Z,100.00
2022-09-26T16:29:32.753Z,100.00
2022-09-26T16:32:02.361Z,100.00
2022-09-26T16:34:30.820Z,100.00
2022-09-26T16:36:59.167Z,100.00
2022-09-26T16:39:29.018Z,100.00
2022-09-26T16:42:02.461Z,100.00
2022-09-26T16:44:35.916Z,100.00
2022-09-26T16:47:08.838Z,100.00
2022-09-26T16:49:46.575Z,100.00
2022-09-26T16:52:28.438Z,100.00
2022-09-26T16:54:57.315Z,100.00
2022-09-26T16:57:27.837Z,100.00
2022-09-26T17:00:21.455Z,100.00
2022-09-26T17:02:49.779Z,100.00
2022-09-26T17:05:19.689Z,100.00
2022-09-26T17:07:48.775Z,100.00
2022-09-26T17:10:18.267Z,100.00
2022-09-26T17:12:51.321Z,100.00
2022-09-26T17:15:30.769Z,100.00
2022-09-26T17:18:01.080Z,100.00
2022-09-26T17:20:29.658Z,100.00
2022-09-26T17:22:57.324Z,100.00
2022-09-26T17:25:26.035Z,100.00
2022-09-26T17:27:59.570Z,100.00
2022-09-26T17:30:27.403Z,100.00
2022-09-26T17:32:55.492Z,100.00
2022-09-26T17:35:28.125Z,100.00
2022-09-26T17:37:56.535Z,100.00
2022-09-26T17:40:26.988Z,100.00
2022-09-26T17:42:56.906Z,100.00
2022-09-26T17:45:29.163Z,100.00
2022-09-26T17:47:59.116Z,100.00
2022-09-26T17:50:31.049Z,100.00
2022-09-26T17:53:00.679Z,100.00
2022-09-26T17:55:28.707Z,100.00
2022-09-26T17:57:56.845Z,100.00
2022-09-26T18:00:25.509Z,100.00
2022-09-26T18:02:57.690Z,100.00
2022-09-26T18:05:30.637Z,100.00
2022-09-26T18:08:01.578Z,100.00
2022-09-26T18:10:31.617Z,100.00
2022-09-26T18:13:01.877Z,100.00
2022-09-26T18:15:30.845Z,100.00
2022-09-26T18:18:00.222Z,100.00
2022-09-26T18:20:37.706Z,100.00
2022-09-26T18:23:06.917Z,100.00
2022-09-26T18:25:37.152Z,100.00
2022-09-26T18:28:08.055Z,100.00
2022-09-26T18:30:35.905Z,100.00
2022-09-26T18:33:07.057Z,100.00
2022-09-26T18:35:36.277Z,100.00
2022-09-26T18:38:04.263Z,100.00
2022-09-26T18:40:44.057Z,100.00
2022-09-26T18:43:17.833Z,100.00
2022-09-26T18:45:45.528Z,100.00
2022-09-26T18:48:22.389Z,100.00
2022-09-26T18:50:52.375Z,100.00
2022-09-26T18:53:23.087Z,100.00
2022-09-26T18:56:08.341Z,100.00
2022-09-26T18:58:36.477Z,100.00
2022-09-26T19:01:06.939Z,100.00
2022-09-26T19:03:36.893Z,100.00
2022-09-26T19:06:11.657Z,100.00
2022-09-26T19:08:40.660Z,100.00
2022-09-26T19:11:13.696Z,100.00
2022-09-26T19:13:41.313Z,100.00
2022-09-26T19:16:09.607Z,100.00
2022-09-26T19:18:38.589Z,100.00
2022-09-26T19:21:16.448Z,100.00
2022-09-26T19:23:45.474Z,100.00
2022-09-26T19:26:20.480Z,100.00
2022-09-26T19:28:48.216Z,100.00
2022-09-26T19:31:16.238Z,100.00
2022-09-26T19:33:46.528Z,100.00
2022-09-26T19:36:18.514Z,100.00
2022-09-26T19:38:46.565Z,100.00
2022-09-26T19:41:14.627Z,100.00
2022-09-26T19:43:42.835Z,100.00
2022-09-26T19:46:15.425Z,100.00
2022-09-26T19:48:43.668Z,100.00
2022-09-26T19:51:13.820Z,100.00
2022-09-26T19:53:44.091Z,100.00
2022-09-26T19:56:11.772Z,100.00
2022-09-26T19:58:41.017Z,100.00
2022-09-26T20:01:16.496Z,100.00
2022-09-26T20:03:44.954Z,100.00
2022-09-26T20:06:15.851Z,100.00
2022-09-26T20:08:45.094Z,100.00
2022-09-26T20:11:13.480Z,100.00
2022-09-26T20:13:59.127Z,100.00
2022-09-26T20:16:27.544Z,100.00
2022-09-26T20:18:56.797Z,100.00
2022-09-26T20:21:28.385Z,100.00
2022-09-26T20:24:00.262Z,100.00
2022-09-26T20:26:29.382Z,100.00
2022-09-26T20:28:57.452Z,100.00
2022-09-26T20:31:27.420Z,100.00
2022-09-26T20:33:56.903Z,100.00
2022-09-26T20:36:27.720Z,100.00
2022-09-26T20:39:00.435Z,100.00
2022-09-26T20:41:32.678Z,100.00
2022-09-26T20:44:06.011Z,100.00
2022-09-26T20:46:38.815Z,100.00
2022-09-26T20:49:09.821Z,100.00
2022-09-26T20:51:38.346Z,100.00
2022-09-26T20:54:20.093Z,100.00
2022-09-26T20:56:48.839Z,100.00
2022-09-26T20:59:16.538Z,100.00
2022-09-26T21:01:44.303Z,100.00
2022-09-26T21:04:16.848Z,100.00
2022-09-26T21:06:45.910Z,100.00
2022-09-26T21:09:20.821Z,100.00
2022-09-26T21:11:49.201Z,100.00
2022-09-26T21:14:17.252Z,100.00
2022-09-26T21:16:48.648Z,100.00
2022-09-26T21:19:23.762Z,100.00
2022-09-26T21:21:52.499Z,100.00
2022-09-26T21:24:30.384Z,100.00
2022-09-26T21:26:58.017Z,100.00
2022-09-26T21:29:25.671Z,100.00
2022-09-26T21:31:56.157Z,100.00
2022-09-26T21:34:28.241Z,100.00
2022-09-26T21:36:59.374Z,100.00
2022-09-26T21:39:28.780Z,100.00
2022-09-26T21:41:59.512Z,100.00
2022-09-26T21:44:31.962Z,100.00
2022-09-26T21:46:59.650Z,100.00
2022-09-26T21:49:27.261Z,100.00
2022-09-26T21:51:58.918Z,100.00
2022-09-26T21:54:33.809Z,100.00
2022-09-26T21:57:06.066Z,100.00
2022-09-26T21:59:33.912Z,100.00
2022-09-26T22:02:01.599Z,100.00
2022-09-26T22:04:29.264Z,100.00
2022-09-26T22:06:57.201Z,100.00
2022-09-26T22:09:25.201Z,100.00
2022-09-26T22:11:54.824Z,100.00
2022-09-26T22:14:22.594Z,100.00
2022-09-26T22:16:50.841Z,100.00
2022-09-26T22:19:18.493Z,100.00
2022-09-26T22:21:46.927Z,100.00
2022-09-26T22:24:14.587Z,100.00
2022-09-26T22:26:42.253Z,100.00
2022-09-26T22:29:11.487Z,100.00
2022-09-26T22:31:39.142Z,100.00
2022-09-26T22:34:06.846Z,100.00
2022-09-26T22:36:34.506Z,100.00
2022-09-26T22:39:02.510Z,100.00
2022-09-26T22:41:30.159Z,100.00
2022-09-26T22:43:57.904Z,100.00
2022-09-26T22:46:27.013Z,100.00
2022-09-26T22:48:54.681Z,100.00
2022-09-26T22:51:22.278Z,100.00
2022-09-26T22:53:49.780Z,100.00
2022-09-26T22:56:18.005Z,100.00
2022-09-26T22:58:49.067Z,100.00
2022-09-26T23:01:19.008Z,100.00
2022-09-26T23:03:47.956Z,100.00
2022-09-26T23:06:15.939Z,100.00
2022-09-26T23:08:43.494Z,100.00
2022-09-26T23:11:13.131Z,100.00
2022-09-26T23:13:41.008Z,100.00
2022-09-26T23:16:10.166Z,100.00
2022-09-26T23:18:39.482Z,100.00
2022-09-26T23:21:10.594Z,100.00
2022-09-26T23:23:38.299Z,100.00
2022-09-26T23:26:06.898Z,100.00
2022-09-26T23:28:35.303Z,100.00
2022-09-26T23:31:10.090Z,100.00
2022-09-26T23:33:38.299Z,100.00
2022-09-26T23:36:07.694Z,100.00
2022-09-26T23:38:38.423Z,100.00
2022-09-26T23:41:06.635Z,100.00
2022-09-26T23:43:34.222Z,100.00
2022-09-26T23:46:01.834Z,100.00
2022-09-26T23:48:29.579Z,100.00
2022-09-26T23:50:57.592Z,100.00
2022-09-26T23:53:25.682Z,100.00
2022-09-26T23:56:05.479Z,100.00
2022-09-26T23:58:33.843Z,100.00
